createdAt,value
2018-07-26T00:02:58.221Z,1011.6
2018-07-26T00:13:43.920Z,1011.7
2018-07-26T00:24:29.620Z,1011.6
2018-07-26T00:35:15.180Z,1011.7
2018-07-26T00:45:28.691Z,1011.7
2018-07-26T00:55:43.044Z,1011.6
2018-07-26T01:06:28.399Z,1011.6
2018-07-26T01:17:14.076Z,1011.6
2018-07-26T01:27:25.783Z,1011.5
2018-07-26T01:37:40.323Z,1011.4
2018-07-26T01:47:54.404Z,1011.4
2018-07-26T01:58:08.282Z,1011.4
2018-07-26T02:08:22.588Z,1011.4
2018-07-26T02:18:36.567Z,1011.3
2018-07-26T02:29:21.599Z,1011.3
2018-07-26T02:40:08.154Z,1011.3
2018-07-26T02:50:52.961Z,1011.4
2018-07-26T03:01:38.758Z,1011.4
2018-07-26T03:12:04.193Z,1011.3
2018-07-26T03:22:18.282Z,1011.3
2018-07-26T03:33:03.985Z,1011.3
2018-07-26T03:43:49.863Z,1011.4
2018-07-26T03:54:35.598Z,1011.4
2018-07-26T04:04:47.887Z,1011.4
2018-07-26T04:15:00.201Z,1011.4
2018-07-26T04:25:45.581Z,1011.4
2018-07-26T04:36:00.024Z,1011.5
2018-07-26T04:46:12.255Z,1011.4
2018-07-26T04:56:26.417Z,1011.4
2018-07-26T05:07:11.945Z,1011.5
2018-07-26T05:17:25.966Z,1011.6
2018-07-26T05:27:41.517Z,1011.6
2018-07-26T05:38:26.994Z,1011.6
2018-07-26T05:49:14.730Z,1011.8
2018-07-26T05:59:29.105Z,1011.7
2018-07-26T06:09:43.368Z,1011.7
2018-07-26T06:20:29.038Z,1011.8
2018-07-26T06:30:40.233Z,1011.7
2018-07-26T06:40:54.561Z,1011.7
2018-07-26T06:51:08.528Z,1011.6
2018-07-26T07:01:21.961Z,1011.8
2018-07-26T07:11:36.165Z,1011.8
2018-07-26T07:21:49.561Z,1011.8
2018-07-26T07:32:00.633Z,1011.8
2018-07-26T07:42:13.805Z,1011.7
2018-07-26T07:52:27.355Z,1011.7
2018-07-26T08:03:12.472Z,1011.7
2018-07-26T08:13:26.227Z,1011.6
2018-07-26T08:23:40.328Z,1011.5
2018-07-26T08:33:54.817Z,1012.0
2018-07-26T08:44:08.666Z,1011.7
2018-07-26T08:54:53.932Z,1011.4
2018-07-26T09:05:06.331Z,1011.3
2018-07-26T09:15:51.872Z,1011.2
2018-07-26T09:26:37.528Z,1011.0
2018-07-26T09:36:51.944Z,1010.7
2018-07-26T09:47:37.388Z,1010.3
2018-07-26T09:57:50.873Z,1010.1
2018-07-26T10:08:01.990Z,1009.9
2018-07-26T10:18:16.768Z,1009.9
2018-07-26T10:28:30.648Z,1009.9
2018-07-26T10:38:44.870Z,1009.9
2018-07-26T10:48:58.967Z,1010.1
2018-07-26T10:59:13.203Z,1010.1
2018-07-26T11:09:24.663Z,1010.1
2018-07-26T11:19:38.626Z,1010.0
2018-07-26T11:29:53.162Z,1009.9
2018-07-26T11:40:05.197Z,1009.8
2018-07-26T11:50:19.957Z,1009.4
2018-07-26T12:01:06.003Z,1009.3
2018-07-26T12:11:52.051Z,1009.2
2018-07-26T12:22:37.674Z,1008.9
2018-07-26T12:32:49.006Z,1008.8
2018-07-26T12:43:35.534Z,1009.2
2018-07-26T12:53:47.052Z,1009.2
2018-07-26T13:04:01.607Z,1009.2
2018-07-26T13:14:13.765Z,1009.1
2018-07-26T13:24:25.923Z,1009.1
2018-07-26T13:34:39.732Z,1009.1
2018-07-26T13:56:13.005Z,1008.6
2018-07-26T14:07:13.012Z,1008.7
2018-07-26T14:18:04.820Z,1008.6
2018-07-26T14:29:27.572Z,1008.7
2018-07-26T14:41:11.121Z,1008.8
2018-07-26T14:52:09.914Z,1008.6
2018-07-26T15:02:59.754Z,1008.6
2018-07-26T15:13:32.005Z,1008.4
2018-07-26T15:23:54.930Z,1008.5
2018-07-26T15:34:56.447Z,1008.5
2018-07-26T15:45:19.842Z,1008.4
2018-07-26T15:55:33.617Z,1008.4
2018-07-26T16:05:45.656Z,1008.3
2018-07-26T16:16:01.271Z,1008.3
2018-07-26T16:26:15.100Z,1008.2
2018-07-26T16:36:29.794Z,1008.2
2018-07-26T16:46:44.020Z,1008.2
2018-07-26T16:56:57.783Z,1008.1
2018-07-26T17:07:49.384Z,1008.2
2018-07-26T17:18:01.127Z,1008.3
2018-07-26T17:28:15.970Z,1008.4
2018-07-26T17:38:30.633Z,1008.2
2018-07-26T17:49:18.166Z,1008.3
2018-07-26T18:00:04.129Z,1008.4
2018-07-26T18:10:18.536Z,1008.5
2018-07-26T18:20:33.061Z,1008.5
2018-07-26T18:30:46.913Z,1008.5
2018-07-26T18:41:00.732Z,1008.6
2018-07-26T18:51:11.878Z,1008.7
2018-07-26T19:07:44.336Z,1008.8
2018-07-26T19:18:30.407Z,1009.0
2018-07-26T19:28:44.955Z,1009.1
2018-07-26T19:39:30.102Z,1009.3
2018-07-26T19:50:15.858Z,1009.3
2018-07-26T20:01:01.800Z,1009.4
2018-07-26T20:29:07.844Z,1009.5
2018-07-26T20:39:53.614Z,1009.5
2018-07-26T20:50:07.912Z,1009.6
2018-07-26T21:00:53.689Z,1009.6
2018-07-26T21:11:07.540Z,1009.6
2018-07-26T21:21:22.065Z,1009.7
2018-07-26T21:31:37.342Z,1009.7
2018-07-26T21:41:49.712Z,1009.9
2018-07-26T21:52:03.695Z,1009.9
2018-07-26T22:02:18.061Z,1009.9
2018-07-26T22:13:04.822Z,1010.0
2018-07-26T22:23:50.514Z,1010.1
2018-07-26T22:34:36.074Z,1010.1
2018-07-26T22:45:22.127Z,1010.2
2018-07-26T22:56:07.710Z,1010.2
2018-07-26T23:06:53.540Z,1010.2
2018-07-26T23:17:39.452Z,1010.2
2018-07-26T23:28:25.058Z,1010.2
2018-07-26T23:39:11.056Z,1010.2
2018-07-26T23:49:56.637Z,1010.1
